Decoded Metar for LFSO (NANCY OCHEY in FRANCE) (IATA:N/A) | Meteo·Mobile Aviation Weather
aviador You're here:

LFSO Decoded Metar

NANCY OCHEY in FRANCE
Report Time2019-02-23 00:00:00
UTC Time2019-02-23 00:28:59
Flight Rules vfr VFR
Wind080° at 07 kt
W.Decomp.*RWY 02: 3.5 kt HW 6.1 kt RCW
W.Rank080° ranks 20
Current wind is above 080° avg. (5.4)
Visibility9999 m
Phenomena:N/A
Clouds:N/A
Expected CloudBase > 1,200 ft AGL from Temp-Dew spread
CeilingNone
Temp06°C (ISA -7)
Dew Point03°C (81% RH)
AAT2.0°C
QNH1035 hPa
Density Alt-295 ft
Elevation1,148 ft
Report Wrong Elevation
Raw Report
LFSO 230000Z AUTO 08007KT CAVOK 06/03 Q1035=

Extra information for LFSO:More info

Metar Taf Metar & Taf Last 4 Metars F.Rules Stats Wind Profile Meteogram Temp Stats Airport Information Weather charts Add Link Nearby VenuesMetar ALERT Operation Metar Decoded Social comments